createdAt,value
2022-11-30T00:00:38.129Z,5.74
2022-11-30T00:01:41.010Z,5.75
2022-11-30T00:02:43.393Z,5.72
2022-11-30T00:03:46.234Z,5.77
2022-11-30T00:04:48.563Z,5.77
2022-11-30T00:05:51.166Z,5.81
2022-11-30T00:06:57.167Z,5.77
2022-11-30T00:08:01.175Z,5.78
2022-11-30T00:09:03.363Z,5.71
2022-11-30T00:10:06.603Z,5.70
2022-11-30T00:11:13.189Z,5.65
2022-11-30T00:12:15.285Z,5.60
2022-11-30T00:13:17.380Z,5.59
2022-11-30T00:14:19.521Z,5.58
2022-11-30T00:15:21.693Z,5.59
2022-11-30T00:16:24.234Z,5.51
2022-11-30T00:17:26.386Z,5.47
2022-11-30T00:18:28.518Z,5.49
2022-11-30T00:19:30.677Z,5.51
2022-11-30T00:20:32.995Z,5.52
2022-11-30T00:21:35.109Z,5.58
2022-11-30T00:22:37.210Z,5.58
2022-11-30T00:23:41.386Z,5.60
2022-11-30T00:24:43.520Z,5.57
2022-11-30T00:25:45.782Z,5.60
2022-11-30T00:26:47.908Z,5.56
2022-11-30T00:27:50.037Z,5.56
2022-11-30T00:28:52.285Z,5.54
2022-11-30T00:29:54.463Z,5.50
2022-11-30T00:31:01.219Z,5.52
2022-11-30T00:32:03.442Z,5.47
2022-11-30T00:33:05.560Z,5.47
2022-11-30T00:34:07.728Z,5.49
2022-11-30T00:35:09.846Z,5.49
2022-11-30T00:36:14.537Z,5.50
2022-11-30T00:37:16.829Z,5.51
2022-11-30T00:38:18.955Z,5.55
2022-11-30T00:39:21.161Z,5.51
2022-11-30T00:40:23.428Z,5.49
2022-11-30T00:41:25.619Z,5.49
2022-11-30T00:42:27.717Z,5.46
2022-11-30T00:43:30.874Z,5.47
2022-11-30T00:44:33.004Z,5.51
2022-11-30T00:45:35.103Z,5.49
2022-11-30T00:46:37.258Z,5.46
2022-11-30T00:47:39.386Z,5.46
2022-11-30T00:48:42.024Z,5.41
2022-11-30T00:49:44.156Z,5.38
2022-11-30T00:50:48.537Z,5.44
2022-11-30T00:51:50.817Z,5.42
2022-11-30T00:52:52.931Z,5.49
2022-11-30T00:53:55.157Z,5.42
2022-11-30T00:54:57.354Z,5.42
2022-11-30T00:55:59.477Z,5.45
2022-11-30T00:57:01.661Z,5.46
2022-11-30T00:58:07.057Z,5.50
2022-11-30T00:59:09.266Z,5.44
2022-11-30T01:00:11.828Z,5.42
2022-11-30T01:01:14.036Z,5.40
2022-11-30T01:02:16.392Z,5.43
2022-11-30T01:03:18.609Z,5.46
2022-11-30T01:04:21.075Z,5.45
2022-11-30T01:05:23.211Z,5.45
2022-11-30T01:06:25.335Z,5.39
2022-11-30T01:07:27.504Z,5.42
2022-11-30T01:08:29.690Z,5.39
2022-11-30T01:09:31.798Z,5.34
2022-11-30T01:10:35.157Z,5.32
2022-11-30T01:11:37.759Z,5.25
2022-11-30T01:12:39.863Z,5.26
2022-11-30T01:13:42.068Z,5.27
2022-11-30T01:14:44.538Z,5.28
2022-11-30T01:15:46.959Z,5.29
2022-11-30T01:16:54.743Z,5.35
2022-11-30T01:18:01.254Z,5.37
2022-11-30T01:19:04.186Z,5.30
2022-11-30T01:20:08.102Z,5.37
2022-11-30T01:21:13.683Z,5.40
2022-11-30T01:22:15.797Z,5.34
2022-11-30T01:23:17.957Z,5.28
2022-11-30T01:24:20.055Z,5.26
2022-11-30T01:25:22.294Z,5.27
2022-11-30T01:26:24.902Z,5.28
2022-11-30T01:27:27.037Z,5.24
2022-11-30T01:28:29.274Z,5.31
2022-11-30T01:29:31.398Z,5.30
2022-11-30T01:30:33.610Z,5.29
2022-11-30T01:31:36.818Z,5.39
2022-11-30T01:32:38.924Z,5.38
2022-11-30T01:33:41.964Z,5.35
2022-11-30T01:34:44.346Z,5.35
2022-11-30T01:35:46.738Z,5.35
2022-11-30T01:36:48.852Z,5.33
2022-11-30T01:37:50.944Z,5.35
2022-11-30T01:38:55.846Z,5.35
2022-11-30T01:39:58.127Z,5.30
2022-11-30T01:41:00.768Z,5.31
2022-11-30T01:42:02.938Z,5.31
2022-11-30T01:43:11.777Z,5.27
2022-11-30T01:44:19.759Z,5.30
2022-11-30T01:45:22.717Z,5.26
2022-11-30T01:46:30.400Z,5.24
2022-11-30T01:47:40.449Z,5.22
2022-11-30T01:48:42.674Z,5.21
2022-11-30T01:49:51.116Z,5.25
2022-11-30T01:50:53.277Z,5.28
2022-11-30T01:52:06.212Z,5.29
2022-11-30T01:53:12.429Z,5.27
2022-11-30T01:54:17.309Z,5.28
2022-11-30T01:55:29.644Z,5.26
2022-11-30T01:56:32.444Z,5.25
2022-11-30T01:57:38.688Z,5.23
2022-11-30T01:58:40.967Z,5.23
2022-11-30T01:59:43.149Z,5.32
2022-11-30T02:00:47.554Z,5.24
2022-11-30T02:01:50.771Z,5.28
2022-11-30T02:03:12.105Z,5.34
2022-11-30T02:04:22.708Z,5.38
2022-11-30T02:05:26.075Z,5.37
2022-11-30T02:06:29.420Z,5.35
2022-11-30T02:07:31.756Z,5.30
2022-11-30T02:08:34.380Z,5.32
2022-11-30T02:09:43.218Z,5.33
2022-11-30T02:10:51.700Z,5.27
2022-11-30T02:11:54.048Z,5.21
2022-11-30T02:13:08.050Z,5.27
2022-11-30T02:14:23.643Z,5.31
2022-11-30T02:15:29.985Z,5.26
2022-11-30T02:16:53.188Z,5.22
2022-11-30T02:18:08.294Z,5.22
2022-11-30T02:19:13.434Z,5.19
2022-11-30T02:20:30.304Z,5.17
2022-11-30T02:21:59.698Z,5.16
2022-11-30T02:23:07.608Z,5.15
2022-11-30T02:24:33.896Z,5.20
2022-11-30T02:25:45.419Z,5.15
2022-11-30T02:27:18.489Z,5.20
2022-11-30T02:28:57.955Z,5.24
2022-11-30T02:30:26.678Z,5.19
2022-11-30T02:31:36.773Z,5.13
2022-11-30T02:32:59.805Z,5.20
2022-11-30T02:34:04.185Z,5.21
2022-11-30T02:35:09.154Z,5.18
2022-11-30T02:36:11.400Z,5.14
2022-11-30T02:37:15.176Z,5.10
2022-11-30T02:38:24.506Z,5.14
2022-11-30T02:39:26.740Z,5.10
2022-11-30T02:40:28.852Z,5.07
2022-11-30T02:41:40.937Z,5.10
2022-11-30T02:42:43.076Z,5.12
2022-11-30T02:43:45.321Z,5.04
2022-11-30T02:44:49.990Z,5.01
2022-11-30T02:46:21.174Z,5.06
2022-11-30T02:47:26.313Z,5.03
2022-11-30T02:48:39.214Z,4.99
2022-11-30T02:50:04.603Z,5.06
2022-11-30T02:51:10.577Z,5.02
2022-11-30T02:52:14.698Z,5.06
2022-11-30T02:53:17.224Z,5.04
2022-11-30T02:54:19.646Z,5.01
2022-11-30T02:55:22.371Z,5.00
2022-11-30T02:56:25.137Z,4.99
2022-11-30T02:57:27.376Z,4.99
2022-11-30T02:58:29.780Z,5.01
2022-11-30T02:59:32.053Z,5.03
2022-11-30T03:00:34.207Z,5.08
2022-11-30T03:01:36.591Z,5.14
2022-11-30T03:02:39.783Z,5.15
2022-11-30T03:03:41.902Z,5.13
2022-11-30T03:04:44.074Z,5.09
2022-11-30T03:05:46.281Z,5.18
2022-11-30T03:06:48.400Z,5.19
2022-11-30T03:07:50.622Z,5.14
2022-11-30T03:08:52.791Z,5.20
2022-11-30T03:09:55.337Z,5.18
2022-11-30T03:11:02.497Z,5.19
2022-11-30T03:12:04.721Z,5.11
2022-11-30T03:13:06.824Z,5.14
2022-11-30T03:14:08.915Z,5.05
2022-11-30T03:15:11.198Z,5.04
2022-11-30T03:16:13.992Z,5.09
2022-11-30T03:17:16.135Z,5.07
2022-11-30T03:18:18.227Z,5.08
2022-11-30T03:19:20.542Z,5.12
2022-11-30T03:20:22.643Z,5.13
2022-11-30T03:21:25.161Z,5.10
2022-11-30T03:22:27.344Z,5.03
2022-11-30T03:23:30.064Z,5.02
2022-11-30T03:24:32.185Z,5.06
2022-11-30T03:25:34.600Z,5.09
2022-11-30T03:26:36.793Z,5.09
2022-11-30T03:27:38.888Z,5.10
2022-11-30T03:28:41.087Z,5.01
2022-11-30T03:29:43.218Z,5.04
2022-11-30T03:30:49.756Z,5.08
2022-11-30T03:31:51.986Z,5.01
2022-11-30T03:32:54.326Z,5.00
2022-11-30T03:33:56.417Z,5.01
2022-11-30T03:34:58.533Z,5.08
2022-11-30T03:36:06.452Z,5.07
2022-11-30T03:37:08.668Z,5.06
2022-11-30T03:38:10.848Z,5.08
2022-11-30T03:39:13.052Z,5.04
2022-11-30T03:40:15.351Z,5.05
2022-11-30T03:41:18.042Z,5.03
2022-11-30T03:42:20.201Z,5.06
2022-11-30T03:43:22.436Z,5.01
2022-11-30T03:44:24.607Z,5.01
2022-11-30T03:45:26.751Z,5.07
2022-11-30T03:46:29.237Z,5.14
2022-11-30T03:47:31.434Z,5.15
2022-11-30T03:48:35.994Z,5.15
2022-11-30T03:49:38.151Z,5.13
2022-11-30T03:50:41.600Z,5.13
2022-11-30T03:51:43.699Z,5.10
2022-11-30T03:52:45.830Z,5.08
2022-11-30T03:53:47.961Z,5.08
2022-11-30T03:54:50.067Z,5.04
2022-11-30T03:55:54.112Z,5.09
2022-11-30T03:56:56.215Z,5.02
2022-11-30T03:57:58.296Z,5.06
2022-11-30T03:59:00.404Z,5.06
2022-11-30T04:00:04.110Z,5.13
2022-11-30T04:01:23.664Z,5.13
2022-11-30T04:02:25.974Z,5.09
2022-11-30T04:03:28.743Z,5.05
2022-11-30T04:04:30.876Z,5.03
2022-11-30T04:05:33.020Z,5.05
2022-11-30T04:06:35.276Z,5.04
2022-11-30T04:07:37.415Z,5.05
2022-11-30T04:08:40.437Z,5.03
2022-11-30T04:09:42.600Z,5.13
2022-11-30T04:10:47.900Z,5.08
2022-11-30T04:11:49.992Z,5.09
2022-11-30T04:12:52.108Z,5.03
2022-11-30T04:13:54.279Z,5.03
2022-11-30T04:14:56.383Z,5.02
2022-11-30T04:15:58.893Z,5.05
2022-11-30T04:17:01.197Z,5.06
2022-11-30T04:18:03.514Z,5.04
2022-11-30T04:19:05.628Z,4.96
2022-11-30T04:20:08.240Z,5.01
2022-11-30T04:21:10.583Z,5.00
2022-11-30T04:22:12.721Z,5.03
2022-11-30T04:23:14.898Z,5.01
2022-11-30T04:24:17.241Z,5.02
2022-11-30T04:25:19.355Z,4.99
2022-11-30T04:26:21.645Z,5.06
2022-11-30T04:27:23.752Z,5.00
2022-11-30T04:28:25.901Z,4.97
2022-11-30T04:29:28.001Z,4.95
2022-11-30T04:30:30.271Z,4.95
2022-11-30T04:31:32.425Z,4.98
2022-11-30T04:32:34.553Z,5.04
2022-11-30T04:33:36.846Z,5.01
2022-11-30T04:34:38.992Z,5.02
2022-11-30T04:35:43.550Z,5.00
2022-11-30T04:36:45.853Z,4.95
2022-11-30T04:37:47.951Z,4.96
2022-11-30T04:38:50.124Z,4.99
2022-11-30T04:39:52.229Z,4.94
2022-11-30T04:40:54.825Z,4.91
2022-11-30T04:41:57.009Z,4.89
2022-11-30T04:42:59.089Z,4.91
2022-11-30T04:44:01.252Z,4.88
2022-11-30T04:45:03.713Z,4.97
2022-11-30T04:46:06.885Z,4.96
2022-11-30T04:47:09.098Z,4.95
2022-11-30T04:48:11.362Z,4.92
2022-11-30T04:49:13.490Z,4.96
2022-11-30T04:50:15.682Z,4.99
2022-11-30T04:51:17.841Z,5.02
2022-11-30T04:52:20.183Z,5.02
2022-11-30T04:53:22.287Z,4.99
2022-11-30T04:54:24.392Z,5.02
2022-11-30T04:55:26.808Z,4.97
2022-11-30T04:56:28.996Z,4.95
2022-11-30T04:57:31.735Z,4.96
2022-11-30T04:58:34.462Z,4.95
2022-11-30T04:59:36.677Z,4.94
2022-11-30T05:00:39.067Z,4.98
2022-11-30T05:01:41.341Z,4.95
2022-11-30T05:02:48.997Z,4.94
2022-11-30T05:03:54.587Z,5.07
2022-11-30T05:04:56.733Z,5.08
2022-11-30T05:05:58.971Z,5.10
2022-11-30T05:07:01.330Z,5.09
2022-11-30T05:08:03.590Z,4.99
2022-11-30T05:09:05.761Z,4.99
2022-11-30T05:10:09.154Z,5.01
2022-11-30T05:11:11.620Z,5.01
2022-11-30T05:12:13.805Z,4.98
2022-11-30T05:13:15.904Z,4.94
2022-11-30T05:14:18.004Z,4.94
2022-11-30T05:15:20.528Z,5.01
2022-11-30T05:16:22.757Z,4.95
2022-11-30T05:17:24.968Z,4.91
2022-11-30T05:18:27.254Z,4.93
2022-11-30T05:19:29.377Z,4.93
2022-11-30T05:20:31.500Z,4.94
2022-11-30T05:21:33.677Z,4.92
2022-11-30T05:22:36.161Z,4.95
2022-11-30T05:23:38.312Z,4.91
2022-11-30T05:24:40.497Z,4.98
2022-11-30T05:25:43.373Z,4.97
2022-11-30T05:26:45.490Z,4.97
2022-11-30T05:27:47.642Z,5.03
2022-11-30T05:28:49.843Z,5.03
2022-11-30T05:29:51.951Z,5.10
2022-11-30T05:30:54.049Z,5.04
2022-11-30T05:31:56.190Z,5.02
2022-11-30T05:32:58.354Z,5.01
2022-11-30T05:34:00.601Z,4.98
2022-11-30T05:35:02.798Z,5.06
2022-11-30T05:36:10.319Z,5.01
2022-11-30T05:37:12.758Z,5.00
2022-11-30T05:38:14.916Z,5.00
2022-11-30T05:39:17.098Z,5.09
2022-11-30T05:40:19.220Z,5.02
2022-11-30T05:41:21.579Z,4.99
2022-11-30T05:42:23.777Z,4.95
2022-11-30T05:43:25.953Z,4.98
2022-11-30T05:44:28.049Z,4.95
2022-11-30T05:45:30.786Z,5.00
2022-11-30T05:46:35.032Z,5.00
2022-11-30T05:47:39.433Z,5.05
2022-11-30T05:48:41.550Z,5.05
2022-11-30T05:49:43.663Z,5.01
2022-11-30T05:50:45.785Z,4.97
2022-11-30T05:51:47.898Z,4.98
2022-11-30T05:52:53.083Z,4.97
2022-11-30T05:53:55.284Z,4.95
2022-11-30T05:54:59.344Z,4.94
2022-11-30T05:56:06.718Z,4.96
2022-11-30T05:57:08.871Z,4.93
2022-11-30T05:58:11.651Z,4.94
2022-11-30T05:59:13.944Z,4.91
2022-11-30T06:00:16.483Z,4.94
2022-11-30T06:01:20.681Z,4.98
2022-11-30T06:02:27.986Z,5.02
2022-11-30T06:03:32.635Z,5.02
2022-11-30T06:04:35.105Z,5.02
2022-11-30T06:05:37.400Z,5.10
2022-11-30T06:06:39.552Z,5.08
2022-11-30T06:07:41.754Z,5.00
2022-11-30T06:08:44.405Z,4.95
2022-11-30T06:09:46.551Z,4.99
2022-11-30T06:10:48.915Z,5.00
2022-11-30T06:11:51.244Z,5.01
2022-11-30T06:12:53.407Z,5.01
2022-11-30T06:13:55.633Z,5.01
2022-11-30T06:14:57.768Z,5.07
2022-11-30T06:16:01.311Z,5.04
2022-11-30T06:17:03.483Z,5.03
2022-11-30T06:18:07.054Z,5.06
2022-11-30T06:19:09.215Z,5.06
2022-11-30T06:20:11.742Z,5.00
2022-11-30T06:21:14.248Z,4.95
2022-11-30T06:22:16.810Z,4.99
2022-11-30T06:23:19.004Z,5.01
2022-11-30T06:24:21.145Z,5.02
2022-11-30T06:25:23.749Z,4.96
2022-11-30T06:26:26.206Z,4.93
2022-11-30T06:27:31.923Z,4.93
2022-11-30T06:28:35.001Z,4.91
2022-11-30T06:29:37.164Z,4.89
2022-11-30T06:30:39.361Z,4.91
2022-11-30T06:31:41.597Z,4.91
2022-11-30T06:32:47.889Z,4.90
2022-11-30T06:33:50.082Z,4.93
2022-11-30T06:34:52.264Z,4.99
2022-11-30T06:35:54.703Z,5.00
2022-11-30T06:36:57.651Z,5.03
2022-11-30T06:38:00.598Z,5.01
2022-11-30T06:39:02.903Z,4.98
2022-11-30T06:40:08.033Z,5.05
2022-11-30T06:41:12.430Z,5.02
2022-11-30T06:42:14.637Z,5.00
2022-11-30T06:43:16.731Z,4.98
2022-11-30T06:44:18.900Z,4.92
2022-11-30T06:45:21.073Z,4.94
2022-11-30T06:46:23.932Z,4.96
2022-11-30T06:47:27.027Z,4.96
2022-11-30T06:48:29.266Z,4.95
2022-11-30T06:49:31.491Z,4.96
2022-11-30T06:50:33.776Z,4.99
2022-11-30T06:51:37.360Z,5.02
2022-11-30T06:52:39.484Z,5.04
2022-11-30T06:53:43.007Z,5.04
2022-11-30T06:54:45.657Z,5.00
2022-11-30T06:55:48.083Z,5.13
2022-11-30T06:56:50.240Z,5.03
2022-11-30T06:57:52.414Z,5.00
2022-11-30T06:58:54.609Z,4.94
2022-11-30T06:59:57.465Z,4.89
2022-11-30T07:00:59.906Z,4.97
2022-11-30T07:02:08.115Z,4.95
2022-11-30T07:03:12.741Z,4.95
2022-11-30T07:04:14.950Z,4.89
2022-11-30T07:05:17.250Z,4.91
2022-11-30T07:06:19.343Z,4.85
2022-11-30T07:07:21.624Z,4.89
2022-11-30T07:08:23.801Z,4.90
2022-11-30T07:09:25.886Z,4.88
2022-11-30T07:10:28.043Z,5.00
2022-11-30T07:11:30.210Z,4.90
2022-11-30T07:12:34.971Z,4.93
2022-11-30T07:13:37.365Z,4.89
2022-11-30T07:14:39.503Z,4.88
2022-11-30T07:15:42.748Z,4.89
2022-11-30T07:16:44.864Z,4.89
2022-11-30T07:17:47.109Z,4.89
2022-11-30T07:18:49.280Z,4.92
2022-11-30T07:19:51.386Z,4.92
2022-11-30T07:20:53.484Z,4.88
2022-11-30T07:21:55.769Z,4.93
2022-11-30T07:22:58.069Z,4.95
2022-11-30T07:24:18.816Z,4.94
2022-11-30T07:25:39.149Z,4.99
2022-11-30T07:26:41.319Z,4.98
2022-11-30T07:27:43.499Z,4.99
2022-11-30T07:28:46.718Z,4.96
2022-11-30T07:29:51.532Z,4.96
2022-11-30T07:30:53.772Z,4.92
2022-11-30T07:31:56.014Z,4.96
2022-11-30T07:32:58.556Z,4.92
2022-11-30T07:34:05.310Z,4.98
2022-11-30T07:35:08.025Z,4.96
2022-11-30T07:36:11.008Z,5.00
2022-11-30T07:37:13.396Z,5.06
2022-11-30T07:38:15.520Z,4.99
2022-11-30T07:39:17.655Z,4.99
2022-11-30T07:40:19.946Z,5.00
2022-11-30T07:41:22.110Z,4.93
2022-11-30T07:42:24.266Z,4.96
2022-11-30T07:43:28.631Z,4.89
2022-11-30T07:44:30.768Z,4.91
2022-11-30T07:45:32.961Z,4.88
2022-11-30T07:46:36.681Z,4.93
2022-11-30T07:47:38.871Z,4.88
2022-11-30T07:48:41.628Z,4.94
2022-11-30T07:49:43.757Z,4.92
2022-11-30T07:50:47.136Z,4.91
2022-11-30T07:51:49.253Z,4.88
2022-11-30T07:52:51.409Z,4.88
2022-11-30T07:53:56.684Z,4.93
2022-11-30T07:54:58.778Z,4.96
2022-11-30T07:56:08.864Z,4.92
2022-11-30T07:57:10.953Z,4.94
2022-11-30T07:58:17.283Z,5.01
2022-11-30T07:59:19.794Z,5.02
2022-11-30T08:00:22.062Z,5.02
2022-11-30T08:01:26.948Z,5.02
2022-11-30T08:02:29.172Z,5.01
2022-11-30T08:03:36.630Z,5.03
2022-11-30T08:04:39.372Z,4.98
2022-11-30T08:05:41.538Z,4.96
2022-11-30T08:06:43.673Z,4.95
2022-11-30T08:07:50.233Z,5.00
2022-11-30T08:08:54.274Z,5.02
2022-11-30T08:09:56.380Z,5.04
2022-11-30T08:10:59.355Z,5.08
2022-11-30T08:12:01.444Z,5.05
2022-11-30T08:13:03.601Z,5.05
2022-11-30T08:14:05.932Z,5.02
2022-11-30T08:15:29.167Z,4.97
2022-11-30T08:16:34.312Z,4.95
2022-11-30T08:17:36.513Z,4.96
2022-11-30T08:18:39.226Z,4.94
2022-11-30T08:19:41.374Z,4.88
2022-11-30T08:20:49.642Z,4.87
2022-11-30T08:21:52.180Z,4.89
2022-11-30T08:22:54.369Z,4.92
2022-11-30T08:23:56.993Z,4.90
2022-11-30T08:24:59.214Z,4.93
2022-11-30T08:26:11.694Z,4.96
2022-11-30T08:27:13.804Z,4.94
2022-11-30T08:28:16.011Z,4.90
2022-11-30T08:29:18.185Z,4.91
2022-11-30T08:30:20.306Z,4.88
2022-11-30T08:31:28.387Z,4.98
2022-11-30T08:32:31.361Z,4.93
2022-11-30T08:33:34.963Z,4.91
2022-11-30T08:34:37.315Z,4.97
2022-11-30T08:35:39.515Z,4.96
2022-11-30T08:36:41.991Z,4.99
2022-11-30T08:37:44.218Z,4.90
2022-11-30T08:38:47.474Z,4.95
2022-11-30T08:39:49.618Z,4.91
2022-11-30T08:40:51.779Z,4.91
2022-11-30T08:41:53.984Z,4.89
2022-11-30T08:42:56.113Z,4.88
2022-11-30T08:43:58.372Z,4.89
2022-11-30T08:45:01.018Z,4.91
2022-11-30T08:46:21.589Z,4.93
2022-11-30T08:47:30.458Z,4.97
2022-11-30T08:48:33.049Z,4.96
2022-11-30T08:49:35.201Z,4.93
2022-11-30T08:50:37.359Z,4.98
2022-11-30T08:52:08.675Z,4.97
2022-11-30T08:53:06.280Z,4.95
2022-11-30T08:54:08.666Z,4.97
2022-11-30T08:55:10.796Z,4.96
2022-11-30T08:56:15.691Z,4.96
2022-11-30T08:57:20.016Z,5.02
2022-11-30T08:58:22.210Z,5.01
2022-11-30T08:59:24.395Z,5.00
2022-11-30T09:00:26.580Z,4.98
2022-11-30T09:01:31.518Z,4.96
2022-11-30T09:02:36.863Z,4.97
2022-11-30T09:03:40.326Z,4.95
2022-11-30T09:04:42.555Z,4.95
2022-11-30T09:05:44.707Z,4.93
2022-11-30T09:06:47.090Z,4.96
2022-11-30T09:07:49.292Z,4.93
2022-11-30T09:08:52.859Z,4.95
2022-11-30T09:09:55.064Z,4.94
2022-11-30T09:10:57.183Z,5.01
2022-11-30T09:11:59.332Z,5.09
2022-11-30T09:13:01.452Z,5.01
2022-11-30T09:14:08.944Z,5.00
2022-11-30T09:15:11.156Z,4.96
2022-11-30T09:16:13.802Z,4.99
2022-11-30T09:17:16.247Z,5.06
2022-11-30T09:18:18.393Z,5.10
2022-11-30T09:19:21.454Z,5.12
2022-11-30T09:20:24.110Z,5.13
2022-11-30T09:21:26.412Z,5.13
2022-11-30T09:22:29.069Z,5.15
2022-11-30T09:23:31.315Z,5.12
2022-11-30T09:24:33.701Z,5.19
2022-11-30T09:25:35.826Z,5.20
2022-11-30T09:26:37.960Z,5.24
2022-11-30T09:27:40.071Z,5.24
2022-11-30T09:28:42.209Z,5.18
2022-11-30T09:29:44.293Z,5.21
2022-11-30T09:30:46.463Z,5.20
2022-11-30T09:31:49.301Z,5.21
2022-11-30T09:32:51.435Z,5.22
2022-11-30T09:33:56.398Z,5.25
2022-11-30T09:34:58.611Z,5.23
2022-11-30T09:36:03.653Z,5.23
2022-11-30T09:37:05.894Z,5.20
2022-11-30T09:38:08.038Z,5.18
2022-11-30T09:39:12.765Z,5.30
2022-11-30T09:40:17.237Z,5.23
2022-11-30T09:41:28.401Z,5.21
2022-11-30T09:42:56.365Z,5.21
2022-11-30T09:44:07.069Z,5.21
2022-11-30T09:45:42.571Z,5.19
2022-11-30T09:46:56.158Z,5.21
2022-11-30T09:48:57.013Z,5.18
2022-11-30T09:50:10.746Z,5.18
2022-11-30T09:51:19.146Z,5.17
2022-11-30T09:52:32.575Z,5.19
2022-11-30T09:53:44.881Z,5.14
2022-11-30T09:54:48.983Z,5.21
2022-11-30T09:55:53.931Z,5.24
2022-11-30T09:56:56.135Z,5.19
2022-11-30T09:58:04.703Z,5.19
2022-11-30T09:59:14.453Z,5.22
2022-11-30T10:00:21.726Z,5.24
2022-11-30T10:01:24.163Z,5.24
2022-11-30T10:02:32.271Z,5.26
2022-11-30T10:03:34.542Z,5.25
2022-11-30T10:04:36.748Z,5.23
2022-11-30T10:05:56.608Z,5.33
2022-11-30T10:07:09.495Z,5.30
2022-11-30T10:08:16.760Z,5.24
2022-11-30T10:09:33.049Z,5.24
2022-11-30T10:10:38.128Z,5.23
2022-11-30T10:12:00.146Z,5.31
2022-11-30T10:13:23.914Z,5.29
2022-11-30T10:14:58.625Z,5.27
2022-11-30T10:16:21.884Z,5.38
2022-11-30T10:17:32.392Z,5.38
2022-11-30T10:19:08.217Z,5.43
2022-11-30T10:20:41.533Z,5.34
2022-11-30T10:22:02.192Z,5.43
2022-11-30T10:23:19.811Z,5.36
2022-11-30T10:24:43.410Z,5.37
2022-11-30T10:26:03.703Z,5.36
2022-11-30T10:27:18.247Z,5.39
2022-11-30T10:28:49.108Z,5.55
2022-11-30T10:29:51.912Z,5.43
2022-11-30T10:30:54.147Z,5.39
2022-11-30T10:31:59.400Z,5.38
2022-11-30T10:33:15.853Z,5.40
2022-11-30T10:34:23.776Z,5.39
2022-11-30T10:35:37.189Z,5.40
2022-11-30T10:36:46.466Z,5.43
2022-11-30T10:37:51.340Z,5.41
2022-11-30T10:38:59.183Z,5.47
2022-11-30T10:40:06.429Z,5.48
2022-11-30T10:41:33.766Z,5.46
2022-11-30T10:42:48.023Z,5.49
2022-11-30T10:44:15.161Z,5.43
2022-11-30T10:45:23.010Z,5.39
2022-11-30T10:46:38.441Z,5.44
2022-11-30T10:47:50.217Z,5.45
2022-11-30T10:49:08.103Z,5.42
2022-11-30T10:50:15.026Z,5.45
2022-11-30T10:51:17.349Z,5.44
2022-11-30T10:52:27.262Z,5.44
2022-11-30T10:53:29.525Z,5.42
2022-11-30T10:54:32.353Z,5.39
2022-11-30T10:55:50.878Z,5.38
2022-11-30T10:56:53.072Z,5.43
2022-11-30T10:58:24.405Z,5.53
2022-11-30T10:59:44.202Z,5.52
2022-11-30T11:01:11.531Z,5.51
2022-11-30T11:02:41.738Z,5.54
2022-11-30T11:03:43.947Z,5.45
2022-11-30T11:04:46.187Z,5.49
2022-11-30T11:06:02.177Z,5.46
2022-11-30T11:07:09.182Z,5.53
2022-11-30T11:08:24.637Z,5.52
2022-11-30T11:09:29.597Z,5.50
2022-11-30T11:10:36.606Z,5.59
2022-11-30T11:11:39.398Z,5.49
2022-11-30T11:12:48.507Z,5.50
2022-11-30T11:13:50.697Z,5.49
2022-11-30T11:15:21.803Z,5.51
2022-11-30T11:16:23.867Z,5.61
2022-11-30T11:17:26.485Z,5.58
2022-11-30T11:18:30.638Z,5.61
2022-11-30T11:19:41.976Z,5.62
2022-11-30T11:20:44.953Z,5.55
2022-11-30T11:21:49.663Z,5.57
2022-11-30T11:22:51.836Z,5.52
2022-11-30T11:23:56.528Z,5.49
2022-11-30T11:25:19.288Z,5.53
2022-11-30T11:26:25.362Z,5.55
2022-11-30T11:27:30.527Z,5.55
2022-11-30T11:28:36.082Z,5.53
2022-11-30T11:29:38.349Z,5.52
2022-11-30T11:30:41.354Z,5.54
2022-11-30T11:31:46.437Z,5.60
2022-11-30T11:33:03.389Z,5.61
2022-11-30T11:34:23.041Z,5.61
2022-11-30T11:35:36.678Z,5.52
2022-11-30T11:36:38.877Z,5.52
2022-11-30T11:37:52.194Z,5.59
2022-11-30T11:38:54.752Z,5.61
2022-11-30T11:40:14.812Z,5.66
2022-11-30T11:41:24.619Z,5.66
2022-11-30T11:42:51.015Z,5.82
2022-11-30T11:44:02.310Z,5.82
2022-11-30T11:45:05.987Z,5.85
2022-11-30T11:46:32.917Z,5.82
2022-11-30T11:47:40.575Z,5.90
2022-11-30T11:48:55.863Z,5.84
2022-11-30T11:50:06.132Z,5.79
2022-11-30T11:51:10.521Z,5.79
2022-11-30T11:52:16.281Z,5.84
2022-11-30T11:53:23.926Z,5.84
2022-11-30T11:54:29.468Z,5.86
2022-11-30T11:55:31.856Z,5.87
2022-11-30T11:56:37.721Z,5.97
2022-11-30T11:57:54.738Z,5.91
2022-11-30T11:59:03.168Z,5.85
2022-11-30T12:00:16.400Z,5.80
2022-11-30T12:01:41.470Z,5.82
2022-11-30T12:03:25.180Z,5.80
2022-11-30T12:04:40.033Z,5.77
2022-11-30T12:05:45.973Z,5.81
2022-11-30T12:06:51.805Z,5.82
2022-11-30T12:08:05.728Z,5.86
2022-11-30T12:09:16.128Z,5.88
2022-11-30T12:11:53.444Z,5.96
2022-11-30T12:12:56.138Z,5.89
2022-11-30T12:13:58.337Z,5.98
2022-11-30T12:15:03.305Z,5.92
2022-11-30T12:16:40.497Z,5.89
2022-11-30T12:18:15.987Z,5.93
2022-11-30T12:19:27.492Z,5.90
2022-11-30T12:21:05.969Z,5.89
2022-11-30T12:22:36.364Z,5.75
2022-11-30T12:23:54.167Z,5.79
2022-11-30T12:25:20.186Z,5.71
2022-11-30T12:26:40.688Z,5.72
2022-11-30T12:27:42.848Z,5.63
2022-11-30T12:29:30.020Z,5.69
2022-11-30T12:30:56.413Z,5.66
2022-11-30T12:32:01.257Z,5.70
2022-11-30T12:33:12.245Z,5.70
2022-11-30T12:34:35.968Z,5.70
2022-11-30T12:36:10.432Z,5.69
2022-11-30T12:37:50.059Z,5.73
2022-11-30T12:38:59.431Z,5.73
2022-11-30T12:40:24.661Z,5.68
2022-11-30T12:41:29.617Z,5.71
2022-11-30T12:42:44.476Z,5.74
2022-11-30T12:44:01.594Z,5.74
2022-11-30T12:45:19.383Z,5.75
2022-11-30T12:46:34.388Z,5.79
2022-11-30T12:47:48.303Z,5.81
2022-11-30T12:49:03.402Z,5.84
2022-11-30T12:50:27.271Z,5.92
2022-11-30T12:51:34.819Z,5.86
2022-11-30T12:52:45.936Z,5.72
2022-11-30T12:54:06.142Z,5.76
2022-11-30T12:55:25.520Z,5.78
2022-11-30T12:56:36.120Z,5.74
2022-11-30T12:58:16.786Z,5.71
2022-11-30T12:59:24.569Z,5.73
2022-11-30T13:00:37.377Z,5.71
2022-11-30T13:01:39.562Z,5.63
2022-11-30T13:02:41.720Z,5.59
2022-11-30T13:03:50.161Z,5.59
2022-11-30T13:05:02.867Z,5.58
2022-11-30T13:06:14.051Z,5.56
2022-11-30T13:07:37.788Z,5.60
2022-11-30T13:08:46.599Z,5.67
2022-11-30T13:10:04.193Z,5.58
2022-11-30T13:11:13.486Z,5.61
2022-11-30T13:12:24.051Z,5.61
2022-11-30T13:13:33.624Z,5.57
2022-11-30T13:14:36.677Z,5.60
2022-11-30T13:15:40.448Z,5.63
2022-11-30T13:16:44.238Z,5.57
2022-11-30T13:17:47.556Z,5.58
2022-11-30T13:18:51.533Z,5.65
2022-11-30T13:20:08.286Z,5.68
2022-11-30T13:21:22.204Z,5.63
2022-11-30T13:22:56.515Z,5.80
2022-11-30T13:24:04.575Z,5.64
2022-11-30T13:25:10.131Z,5.73
2022-11-30T13:26:34.228Z,5.68
2022-11-30T13:27:46.785Z,5.65
2022-11-30T13:29:04.003Z,5.69
2022-11-30T13:30:13.961Z,5.69
2022-11-30T13:31:34.149Z,5.64
2022-11-30T13:34:00.295Z,5.68
2022-11-30T13:35:29.940Z,5.72
2022-11-30T13:36:38.450Z,5.71
2022-11-30T13:37:40.645Z,5.73
2022-11-30T13:38:42.908Z,5.66
2022-11-30T13:39:50.222Z,5.63
2022-11-30T13:40:56.545Z,5.57
2022-11-30T13:42:01.399Z,5.54
2022-11-30T13:43:03.916Z,5.54
2022-11-30T13:44:35.372Z,5.52
2022-11-30T13:45:38.635Z,5.52
2022-11-30T13:46:49.063Z,5.52
2022-11-30T13:47:54.737Z,5.51
2022-11-30T13:49:21.160Z,5.59
2022-11-30T13:50:32.278Z,5.53
2022-11-30T13:51:40.683Z,5.51
2022-11-30T13:52:57.974Z,5.48
2022-11-30T13:54:37.958Z,5.57
2022-11-30T13:55:43.361Z,5.55
2022-11-30T13:56:48.689Z,5.54
2022-11-30T13:57:51.101Z,5.56
2022-11-30T13:59:23.253Z,5.62
2022-11-30T14:00:31.469Z,5.61
2022-11-30T14:01:33.779Z,5.52
2022-11-30T14:02:42.877Z,5.46
2022-11-30T14:03:49.075Z,5.46
2022-11-30T14:05:14.320Z,5.49
2022-11-30T14:06:41.502Z,5.55
2022-11-30T14:08:10.225Z,5.47
2022-11-30T14:09:40.513Z,5.52
2022-11-30T14:10:45.866Z,5.55
2022-11-30T14:11:48.076Z,5.53
2022-11-30T14:12:58.836Z,5.57
2022-11-30T14:14:44.961Z,5.48
2022-11-30T14:15:47.830Z,5.46
2022-11-30T14:16:50.052Z,5.44
2022-11-30T14:17:57.318Z,5.45
2022-11-30T14:19:00.434Z,5.43
2022-11-30T14:20:16.846Z,5.42
2022-11-30T14:21:21.766Z,5.55
2022-11-30T14:22:25.998Z,5.52
2022-11-30T14:23:43.599Z,5.54
2022-11-30T14:24:48.054Z,5.49
2022-11-30T14:25:53.088Z,5.55
2022-11-30T14:26:55.566Z,5.50
2022-11-30T14:27:58.153Z,5.52
2022-11-30T14:29:13.929Z,5.53
2022-11-30T14:30:19.588Z,5.49
2022-11-30T14:31:27.114Z,5.51
2022-11-30T14:32:42.142Z,5.54
2022-11-30T14:33:55.044Z,5.56
2022-11-30T14:35:18.224Z,5.50
2022-11-30T14:36:22.921Z,5.53
2022-11-30T14:37:31.372Z,5.55
2022-11-30T14:38:41.305Z,5.53
2022-11-30T14:39:45.643Z,5.57
2022-11-30T14:40:53.042Z,5.50
2022-11-30T14:41:55.386Z,5.49
2022-11-30T14:43:00.525Z,5.52
2022-11-30T14:44:05.530Z,5.45
2022-11-30T14:45:19.813Z,5.44
2022-11-30T14:46:22.012Z,5.41
2022-11-30T14:47:32.937Z,5.41
2022-11-30T14:48:34.931Z,5.37
2022-11-30T14:49:44.459Z,5.31
2022-11-30T14:50:50.719Z,5.33